Time;durP1;ratioP1;P1;durP2;ratioP2;P2;SDS_P1;SDS_P2;PMS_P1;PMS_P2;Temp;Humidity;BMP_temperature;BMP_pressure;BME280_temperature;BME280_humidity;BME280_pressure;Samples;Min_cycle;Max_cycle;Signal;HPM_P1;HPM_P2
2021/04/14 00:01:57;;;;;;;7.73;2.07;;;;;;;-0.86;100.00;102045.31;5036024;28;20037;-79
2021/04/14 00:04:24;;;;;;;3.63;1.60;;;;;;;-0.79;100.00;102038.72;5027085;28;20037;-79
2021/04/14 00:06:52;;;;;;;6.50;2.10;;;;;;;-0.81;99.49;102036.88;5021082;28;20041;-79
2021/04/14 00:09:18;;;;;;;4.23;1.90;;;;;;;-0.93;100.00;102034.56;5028368;28;20441;-80
2021/04/14 00:11:44;;;;;;;6.80;2.40;;;;;;;-0.92;100.00;102026.88;5039447;28;20479;-79
2021/04/14 00:14:11;;;;;;;4.97;1.30;;;;;;;-0.97;100.00;102030.06;5020709;28;20037;-80
2021/04/14 00:16:37;;;;;;;6.53;1.43;;;;;;;-1.04;100.00;102025.38;5024640;28;20069;-79
2021/04/14 00:19:05;;;;;;;3.87;1.83;;;;;;;-1.01;100.00;102029.03;5013048;28;20045;-80
2021/04/14 00:21:31;;;;;;;5.10;1.67;;;;;;;-0.91;100.00;102033.84;5046412;28;20076;-79
2021/04/14 00:23:58;;;;;;;3.20;1.57;;;;;;;-1.04;100.00;102022.78;5028343;28;20048;-79
2021/04/14 00:26:24;;;;;;;3.93;1.70;;;;;;;-1.02;100.00;102028.94;5024833;28;20044;-79
2021/04/14 00:28:50;;;;;;;4.67;1.50;;;;;;;-1.10;100.00;102027.66;5011388;28;20095;-79
2021/04/14 00:31:16;;;;;;;3.83;1.70;;;;;;;-1.07;100.00;102026.13;5001815;28;20048;-79
2021/04/14 00:33:43;;;;;;;4.23;1.60;;;;;;;-1.11;100.00;102031.09;5030368;28;20395;-79
2021/04/14 00:36:10;;;;;;;5.47;1.50;;;;;;;-1.19;100.00;102021.22;5033454;28;20045;-79
2021/04/14 00:38:39;;;;;;;6.50;2.23;;;;;;;-1.11;100.00;102026.78;5042865;28;20041;-81
2021/04/14 00:41:12;;;;;;;4.47;1.50;;;;;;;-1.18;100.00;102032.47;5029041;28;20136;-78
2021/04/14 00:43:39;;;;;;;3.27;1.40;;;;;;;-1.24;100.00;102030.50;5049542;28;20087;-80
2021/04/14 00:46:06;;;;;;;3.47;1.40;;;;;;;-1.23;100.00;102032.28;5032026;28;20075;-80
2021/04/14 00:48:32;;;;;;;5.27;1.70;;;;;;;-1.27;100.00;102022.56;5027862;28;20191;-80
2021/04/14 00:50:59;;;;;;;5.90;1.70;;;;;;;-1.10;100.00;102030.25;5033711;28;20437;-79
2021/04/14 00:53:26;;;;;;;4.67;1.67;;;;;;;-1.21;100.00;102027.16;5028239;28;20045;-79
2021/04/14 00:55:53;;;;;;;2.43;1.50;;;;;;;-1.20;100.00;102015.97;5031445;28;20629;-79
2021/04/14 00:58:20;;;;;;;11.63;2.53;;;;;;;-1.07;100.00;102025.25;5014061;28;20064;-80
2021/04/14 01:00:49;;;;;;;6.33;2.40;;;;;;;-1.13;100.00;102028.41;5025462;28;20053;-79
2021/04/14 01:03:32;;;;;;;5.43;2.23;;;;;;;-1.19;100.00;102021.22;5032401;28;20032;-79
2021/04/14 01:06:07;;;;;;;7.00;3.10;;;;;;;-1.09;100.00;102026.84;5014432;28;20469;-80
2021/04/14 01:08:34;;;;;;;7.00;2.13;;;;;;;-1.13;100.00;102036.19;5042902;28;20426;-80
2021/04/14 01:11:01;;;;;;;3.93;1.80;;;;;;;-1.14;100.00;102021.47;5005508;28;20034;-80
2021/04/14 01:13:27;;;;;;;5.40;2.00;;;;;;;-1.12;100.00;102019.81;5043423;28;20075;-79
2021/04/14 01:15:53;;;;;;;2.93;2.10;;;;;;;-1.12;100.00;102019.81;5047202;28;20414;-80
2021/04/14 01:18:28;;;;;;;8.70;2.87;;;;;;;-1.14;100.00;102022.34;5025140;28;20128;-80
2021/04/14 01:20:56;;;;;;;12.37;3.70;;;;;;;-1.11;100.00;102026.78;5013911;28;20112;-79
2021/04/14 01:23:24;;;;;;;6.90;2.07;;;;;;;-1.07;100.00;102017.47;5110877;23;20028;-83
2021/04/14 01:25:50;;;;;;;3.93;2.17;;;;;;;-1.10;100.00;102009.50;5011334;28;20057;-84
2021/04/14 01:28:20;;;;;;;7.63;2.43;;;;;;;-1.11;100.00;102019.00;5011640;28;20040;-83
2021/04/14 01:30:47;;;;;;;6.67;2.83;;;;;;;-1.04;100.00;102017.59;4992134;28;20541;-83
2021/04/14 01:33:15;;;;;;;5.53;1.60;;;;;;;-1.06;100.00;102017.53;4994937;28;20488;-83
2021/04/14 01:35:42;;;;;;;11.10;2.90;;;;;;;-1.08;100.00;102018.28;4992499;28;20084;-83
2021/04/14 01:38:08;;;;;;;9.03;2.47;;;;;;;-1.05;100.00;102011.53;4999753;28;20052;-83
2021/04/14 01:40:34;;;;;;;6.83;2.13;;;;;;;-0.97;100.00;102010.19;5012201;28;20053;-83
2021/04/14 01:43:02;;;;;;;5.87;2.07;;;;;;;-1.03;100.00;102011.59;4991220;28;20498;-83
2021/04/14 01:45:32;;;;;;;5.93;1.90;;;;;;;-0.97;100.00;102007.59;5005074;28;20041;-83
2021/04/14 01:47:59;;;;;;;7.20;2.30;;;;;;;-1.06;100.00;102007.16;4994671;28;20599;-84
2021/04/14 01:50:26;;;;;;;7.30;2.03;;;;;;;-1.03;100.00;102012.47;5020972;28;20041;-83
2021/04/14 01:52:54;;;;;;;7.33;2.93;;;;;;;-1.06;100.00;102009.75;5012220;28;20517;-83
2021/04/14 01:55:20;;;;;;;5.77;2.30;;;;;;;-0.98;100.00;102008.41;5006975;28;20625;-84
2021/04/14 01:57:47;;;;;;;9.23;2.50;;;;;;;-1.04;100.00;102008.13;5026117;28;20045;-83
2021/04/14 02:00:16;;;;;;;7.57;2.97;;;;;;;-1.03;100.00;102014.19;4984575;28;20466;-83
2021/04/14 02:02:43;;;;;;;7.50;2.43;;;;;;;-0.93;100.00;102019.88;5021333;28;20155;-83
2021/04/14 02:05:10;;;;;;;6.73;2.10;;;;;;;-1.00;100.00;102017.84;4991056;28;20812;-83
2021/04/14 02:07:37;;;;;;;8.27;2.37;;;;;;;-1.00;100.00;102011.75;4994301;28;20041;-83
2021/04/14 02:10:05;;;;;;;8.57;2.63;;;;;;;-1.03;100.00;102014.19;5016277;28;20231;-84
2021/04/14 02:12:32;;;;;;;7.23;3.37;;;;;;;-1.04;100.00;102009.81;4999369;28;20072;-83
2021/04/14 02:14:58;;;;;;;9.83;2.43;;;;;;;-1.01;100.00;102013.47;4989926;28;20533;-83
2021/04/14 02:17:24;;;;;;;7.27;3.10;;;;;;;-1.02;100.00;102009.06;4988174;28;20060;-82
2021/04/14 02:19:51;;;;;;;6.37;2.17;;;;;;;-0.99;100.00;102010.94;4981211;28;20045;-83
2021/04/14 02:22:17;;;;;;;5.33;1.93;;;;;;;-1.09;100.00;102008.69;4991017;28;20573;-83
2021/04/14 02:24:43;;;;;;;5.13;2.67;;;;;;;-1.14;100.00;102006.78;5003441;28;20033;-83
2021/04/14 02:27:09;;;;;;;7.03;2.80;;;;;;;-1.01;100.00;102012.56;5011454;28;20034;-83
2021/04/14 02:29:35;;;;;;;6.17;2.07;;;;;;;-1.07;100.00;102010.56;4993443;28;20049;-83
2021/04/14 02:32:02;;;;;;;5.77;2.20;;;;;;;-1.14;100.00;102009.38;5005995;28;20051;-83
2021/04/14 02:34:29;;;;;;;11.23;3.57;;;;;;;-1.10;100.00;102005.22;5025435;28;20042;-83
2021/04/14 02:36:55;;;;;;;6.57;1.83;;;;;;;-1.15;100.00;102014.50;4993304;28;20046;-83
2021/04/14 02:39:21;;;;;;;4.87;1.80;;;;;;;-1.17;100.00;102011.84;4993639;28;20664;-83
2021/04/14 02:41:48;;;;;;;6.30;2.00;;;;;;;-1.14;100.00;102017.16;5004581;28;20057;-83
2021/04/14 02:44:14;;;;;;;9.57;2.50;;;;;;;-1.22;100.00;102008.13;4988531;28;20124;-84
2021/04/14 02:46:40;;;;;;;7.80;2.57;;;;;;;-1.16;100.00;102008.44;5002252;28;20470;-84
2021/04/14 02:49:07;;;;;;;5.97;1.90;;;;;;;-1.20;100.00;102009.06;4991906;28;20063;-83
2021/04/14 02:51:33;;;;;;;7.50;2.10;;;;;;;-1.29;100.00;102002.56;4990321;28;20045;-83
2021/04/14 02:53:59;;;;;;;6.07;2.10;;;;;;;-1.22;100.00;102002.94;4991715;28;20037;-83
2021/04/14 02:56:25;;;;;;;5.43;2.30;;;;;;;-1.35;100.00;102005.72;5004622;28;20111;-83
2021/04/14 02:58:51;;;;;;;8.77;2.27;;;;;;;-1.16;100.00;102005.84;4992391;28;20709;-83
2021/04/14 03:01:18;;;;;;;6.10;2.13;;;;;;;-1.31;100.00;102009.38;5033552;28;20677;-83
2021/04/14 03:03:44;;;;;;;8.27;2.50;;;;;;;-1.37;100.00;102002.19;4988342;28;20077;-83
2021/04/14 03:06:10;;;;;;;6.63;2.50;;;;;;;-1.40;100.00;101996.84;4991837;28;20052;-83
2021/04/14 03:08:37;;;;;;;5.27;2.20;;;;;;;-1.40;100.00;102001.16;5004796;28;20045;-83
2021/04/14 03:11:03;;;;;;;4.43;1.93;;;;;;;-1.36;100.00;102001.34;5006838;28;20041;-83
2021/04/14 03:13:29;;;;;;;4.43;1.70;;;;;;;-1.32;100.00;101997.22;4992401;28;20042;-83
2021/04/14 03:15:56;;;;;;;6.67;2.43;;;;;;;-1.38;100.00;101994.34;4979005;28;20046;-83
2021/04/14 03:18:22;;;;;;;6.93;2.20;;;;;;;-1.33;100.00;102001.53;4993503;28;20052;-83
2021/04/14 03:20:49;;;;;;;4.43;2.17;;;;;;;-1.33;100.00;101993.75;5021508;28;20044;-83
2021/04/14 03:23:17;;;;;;;7.30;2.67;;;;;;;-1.37;100.00;101993.50;5006147;28;20045;-83
2021/04/14 03:25:43;;;;;;;6.90;2.20;;;;;;;-1.42;100.00;101995.91;4990794;28;20103;-84
2021/04/14 03:28:09;;;;;;;6.43;2.13;;;;;;;-1.41;100.00;101995.09;4986959;28;20648;-83
2021/04/14 03:30:37;;;;;;;7.97;2.30;;;;;;;-1.42;100.00;102001.97;5001158;28;20045;-82
2021/04/14 03:33:03;;;;;;;10.27;2.97;;;;;;;-1.39;100.00;102003.81;4990784;28;20522;-83
2021/04/14 03:35:30;;;;;;;8.97;2.67;;;;;;;-1.41;100.00;102005.44;5004992;28;20045;-82
2021/04/14 03:37:57;;;;;;;6.50;2.43;;;;;;;-1.34;100.00;102006.66;5000991;28;20050;-83
2021/04/14 03:40:23;;;;;;;7.97;2.30;;;;;;;-1.39;100.00;102009.00;5006875;28;20046;-83
2021/04/14 03:42:51;;;;;;;7.53;4.17;;;;;;;-1.38;100.00;102009.88;4992229;28;20041;-83
2021/04/14 03:45:22;;;;;;;23.87;11.77;;;;;;;-1.42;100.00;102008.84;4992342;28;20111;-83
2021/04/14 03:47:48;;;;;;;24.13;13.53;;;;;;;-1.38;100.00;102005.59;4994618;28;20049;-83
2021/04/14 03:50:17;;;;;;;20.37;11.07;;;;;;;-1.47;100.00;102007.72;5010270;28;20052;-82
2021/04/14 03:52:44;;;;;;;16.07;7.73;;;;;;;-1.52;100.00;102007.47;5005720;28;20498;-82
2021/04/14 03:55:12;;;;;;;14.30;6.07;;;;;;;-1.50;100.00;102010.19;4989980;28;20446;-83
2021/04/14 03:57:38;;;;;;;7.87;4.10;;;;;;;-1.51;100.00;102013.59;4980607;28;20497;-83
2021/04/14 04:00:06;;;;;;;11.23;4.10;;;;;;;-1.53;100.00;102010.88;5000407;28;20034;-83
2021/04/14 04:02:32;;;;;;;6.10;2.40;;;;;;;-1.51;100.00;102011.88;5004633;28;20564;-83
2021/04/14 04:04:58;;;;;;;5.70;2.80;;;;;;;-1.51;100.00;102011.00;5000161;28;20037;-82
2021/04/14 04:07:24;;;;;;;6.10;3.93;;;;;;;-1.42;100.00;102001.97;5006315;28;20056;-82
2021/04/14 04:09:50;;;;;;;8.00;3.03;;;;;;;-1.43;100.00;102012.22;4993753;28;20494;-83
2021/04/14 04:12:17;;;;;;;9.23;2.80;;;;;;;-1.44;100.00;102008.75;4991430;28;20038;-82
2021/04/14 04:14:50;;;;;;;5.50;2.97;;;;;;;-1.44;100.00;102006.16;4998919;28;20077;-82
2021/04/14 04:17:19;;;;;;;13.37;3.83;;;;;;;-1.39;100.00;102010.69;5012160;28;20108;-83
2021/04/14 04:19:46;;;;;;;7.23;3.37;;;;;;;-1.40;100.00;102015.00;5005188;28;20037;-83
2021/04/14 04:22:13;;;;;;;7.87;3.57;;;;;;;-1.42;100.00;102008.84;4983432;28;20041;-83
2021/04/14 04:24:39;;;;;;;10.20;2.73;;;;;;;-1.39;100.00;102010.69;5008565;28;20127;-83
2021/04/14 04:27:06;;;;;;;9.13;2.90;;;;;;;-1.37;100.00;102003.88;4987829;28;20481;-83
2021/04/14 04:29:32;;;;;;;10.50;3.67;;;;;;;-1.42;100.00;102012.34;4991922;28;20139;-82
2021/04/14 04:31:58;;;;;;;6.50;2.80;;;;;;;-1.41;100.00;102013.22;5010071;28;20041;-83
2021/04/14 04:34:24;;;;;;;10.73;3.70;;;;;;;-1.37;100.00;102017.72;5008586;28;20065;-83
2021/04/14 04:36:51;;;;;;;13.03;5.77;;;;;;;-1.34;100.00;102023.09;4988919;28;20056;-83
2021/04/14 04:39:19;;;;;;;6.90;3.57;;;;;;;-1.28;100.00;102019.88;4991441;28;20053;-84
2021/04/14 04:41:46;;;;;;;8.50;2.83;;;;;;;-1.23;100.00;102021.00;4990470;28;20274;-83
2021/04/14 04:44:13;;;;;;;7.17;2.80;;;;;;;-1.23;100.00;102026.19;4989177;28;20096;-83
2021/04/14 04:46:39;;;;;;;10.00;3.23;;;;;;;-1.23;100.00;102027.09;4988161;28;20423;-83
2021/04/14 04:49:06;;;;;;;12.80;3.70;;;;;;;-1.20;100.00;102031.53;4994620;28;20041;-83
2021/04/14 04:51:32;;;;;;;6.93;3.20;;;;;;;-1.19;100.00;102034.19;4988292;28;20092;-84
2021/04/14 04:53:58;;;;;;;8.43;2.97;;;;;;;-1.15;100.00;102032.66;4992032;28;20045;-83
2021/04/14 04:56:24;;;;;;;13.93;3.33;;;;;;;-0.98;100.00;102031.75;4994893;28;20514;-84
2021/04/14 04:58:51;;;;;;;10.03;3.23;;;;;;;-0.93;100.00;102038.03;4993722;28;20419;-84
2021/04/14 05:01:18;;;;;;;10.27;3.07;;;;;;;-0.95;100.00;102042.28;5001861;28;20049;-83
2021/04/14 05:03:44;;;;;;;6.57;3.13;;;;;;;-0.85;100.00;102047.09;5003222;28;20034;-84
2021/04/14 05:06:11;;;;;;;4.90;2.40;;;;;;;-0.83;100.00;102044.59;4986058;28;20207;-84
2021/04/14 05:08:37;;;;;;;10.50;3.17;;;;;;;-0.45;100.00;102041.19;4989465;28;20052;-84
2021/04/14 05:11:03;;;;;;;9.80;3.93;;;;;;;-0.58;100.00;102050.13;4990674;28;20038;-84
2021/04/14 05:13:30;;;;;;;8.40;3.20;;;;;;;-0.56;100.00;102055.38;5008400;28;20038;-83
2021/04/14 05:15:57;;;;;;;10.10;3.23;;;;;;;-0.50;100.00;102060.88;5023159;28;20068;-84
2021/04/14 05:18:23;;;;;;;6.77;2.80;;;;;;;-0.48;100.00;102056.63;4994900;28;20049;-84
2021/04/14 05:20:50;;;;;;;10.13;3.40;;;;;;;-0.39;100.00;102058.75;5013953;28;20069;-84
2021/04/14 05:23:16;;;;;;;6.93;3.57;;;;;;;-0.30;100.00;102061.78;4994300;28;20049;-85
2021/04/14 05:25:45;;;;;;;10.20;3.83;;;;;;;-0.12;100.00;102052.22;4991400;28;20704;-84
2021/04/14 05:28:15;;;;;;;11.20;2.80;;;;;;;-0.11;100.00;102059.19;4993030;28;20050;-84
2021/04/14 05:30:41;;;;;;;8.40;2.77;;;;;;;-0.14;100.00;102052.97;4986981;28;20045;-84
2021/04/14 05:33:09;;;;;;;5.80;2.80;;;;;;;-0.01;100.00;102063.97;5006737;28;20046;-85
2021/04/14 05:35:36;;;;;;;9.23;3.57;;;;;;;0.20;100.00;102060.56;5026422;28;20048;-85
2021/04/14 05:38:03;;;;;;;12.50;3.90;;;;;;;0.02;100.00;102070.16;5022189;28;20494;-85
2021/04/14 05:40:29;;;;;;;11.60;3.03;;;;;;;0.09;100.00;102070.50;4996384;28;20052;-85
2021/04/14 05:42:56;;;;;;;6.77;3.20;;;;;;;0.16;100.00;102061.22;4996898;28;20050;-84
2021/04/14 05:45:25;;;;;;;9.57;3.20;;;;;;;0.22;100.00;102064.09;5010207;28;20037;-83
2021/04/14 05:47:51;;;;;;;15.80;4.10;;;;;;;0.15;100.00;102070.75;5008423;28;20038;-87
2021/04/14 05:50:20;;;;;;;8.40;2.87;;;;;;;0.22;100.00;102071.91;5009734;28;20052;-87
2021/04/14 05:52:47;;;;;;;9.93;2.70;;;;;;;0.41;100.00;102076.19;4994604;28;20048;-85
2021/04/14 05:55:13;;;;;;;12.97;2.93;;;;;;;0.48;100.00;102070.44;5009053;28;20716;-85
2021/04/14 05:57:39;;;;;;;10.77;3.87;;;;;;;0.57;100.00;102071.72;5010227;28;20624;-85
2021/04/14 06:00:08;;;;;;;12.27;3.70;;;;;;;0.51;100.00;102074.06;4977738;28;20068;-85
2021/04/14 06:02:34;;;;;;;9.90;3.10;;;;;;;0.54;100.00;102081.09;5003125;28;20049;-84
2021/04/14 06:05:00;;;;;;;7.97;3.50;;;;;;;0.69;100.00;102075.69;4992770;28;20037;-83
2021/04/14 06:07:26;;;;;;;10.67;2.97;;;;;;;0.82;100.00;102075.34;4995436;28;20107;-85
2021/04/14 06:09:53;;;;;;;12.03;3.33;;;;;;;0.69;100.00;102081.78;4995442;28;20046;-86
2021/04/14 06:12:19;;;;;;;8.73;3.80;;;;;;;0.79;100.00;102083.03;4996444;28;20295;-84
2021/04/14 06:14:45;;;;;;;15.30;4.07;;;;;;;0.89;100.00;102082.59;4995229;28;20037;-85
2021/04/14 06:17:11;;;;;;;9.30;3.50;;;;;;;1.19;100.00;102080.38;4994066;28;20389;-85
2021/04/14 06:19:37;;;;;;;9.23;3.40;;;;;;;1.26;100.00;102085.00;4995319;28;20784;-84
2021/04/14 06:22:05;;;;;;;8.60;4.00;;;;;;;1.49;100.00;102085.88;4994202;28;20045;-85
2021/04/14 06:24:32;;;;;;;12.63;2.57;;;;;;;1.50;100.00;102087.66;4993123;28;20045;-86
2021/04/14 06:27:02;;;;;;;10.07;2.90;;;;;;;1.96;100.00;102089.44;5001549;28;20041;-85
2021/04/14 06:29:29;;;;;;;12.47;4.73;;;;;;;2.32;97.54;102087.28;5008889;28;20437;-85
2021/04/14 06:31:56;;;;;;;7.47;2.60;;;;;;;2.24;96.07;102087.00;5009558;28;20103;-85
2021/04/14 06:34:24;;;;;;;8.87;3.23;;;;;;;2.45;97.57;102086.91;5011194;28;20041;-86
2021/04/14 06:36:55;;;;;;;9.70;2.93;;;;;;;2.38;95.80;102089.22;4996713;28;20091;-86
2021/04/14 06:39:25;;;;;;;6.63;2.67;;;;;;;2.61;97.17;102090.94;4998220;28;20099;-87
2021/04/14 06:42:20;;;;;;;8.50;2.87;;;;;;;2.65;95.37;102090.19;4995839;28;20037;-86
2021/04/14 06:44:56;;;;;;;8.50;3.13;;;;;;;2.70;96.40;102096.47;5025399;28;20113;-87
2021/04/14 06:47:38;;;;;;;5.87;3.23;;;;;;;2.85;97.28;102095.19;5014716;28;20469;-86
2021/04/14 06:50:09;;;;;;;9.63;3.70;;;;;;;2.45;97.28;102102.53;5000025;28;20042;-86
2021/04/14 06:52:43;;;;;;;11.00;4.10;;;;;;;2.88;97.54;102095.31;5007614;28;20683;-87
2021/04/14 06:55:16;;;;;;;8.32;3.05;;;;;;;2.96;97.20;102089.53;5001306;28;20430;-86
2021/04/14 06:57:47;;;;;;;11.07;4.30;;;;;;;3.31;97.64;102092.38;4987909;28;20053;-86
2021/04/14 07:00:28;;;;;;;7.23;3.43;;;;;;;3.26;94.56;102096.56;5013203;28;20042;-85
2021/04/14 07:03:11;;;;;;;7.83;2.83;;;;;;;3.55;88.96;102105.34;5027125;28;20139;-86
2021/04/14 07:05:42;;;;;;;11.47;3.73;;;;;;;3.51;91.63;102096.50;4994346;28;20057;-86
2021/04/14 07:08:20;;;;;;;8.20;3.47;;;;;;;3.89;91.65;102100.31;4987063;28;20052;-86
2021/04/14 07:10:54;;;;;;;10.43;3.27;;;;;;;4.24;89.92;102089.97;4988979;28;20041;-85
2021/04/14 07:13:21;;;;;;;8.25;3.22;;;;;;;4.13;88.57;102102.75;4982903;28;20046;-86
2021/04/14 07:15:49;;;;;;;12.67;3.47;;;;;;;3.85;86.87;102103.66;4983941;28;20041;-86
2021/04/14 07:18:43;;;;;;;13.13;3.43;;;;;;;3.89;89.93;102100.31;4994974;28;20068;-85
2021/04/14 07:21:41;;;;;;;7.80;3.40;;;;;;;3.85;90.16;102106.25;5000090;28;20626;-85
2021/04/14 07:27:02;;;;;;;16.00;5.27;;;;;;;3.71;94.22;102106.72;4907486;29;20535;-82
2021/04/14 07:29:33;;;;;;;10.30;3.60;;;;;;;3.67;92.72;102105.72;4924794;29;20519;-82
2021/04/14 07:32:17;;;;;;;11.87;3.23;;;;;;;3.74;95.07;102104.19;4893784;29;20043;-82
2021/04/14 07:35:11;;;;;;;7.63;3.60;;;;;;;3.89;92.23;102102.91;4912003;29;20046;-81
2021/04/14 07:38:00;;;;;;;17.10;3.97;;;;;;;4.00;92.47;102104.97;4913654;29;20478;-81
2021/04/14 07:40:49;;;;;;;12.60;3.87;;;;;;;4.01;92.74;102105.00;4909853;29;20055;-81
2021/04/14 07:43:34;;;;;;;12.77;4.40;;;;;;;3.85;90.87;102115.84;4903738;29;20055;-83
2021/04/14 07:46:03;;;;;;;12.70;5.27;;;;;;;4.09;90.62;102100.88;4912786;29;20054;-84
2021/04/14 07:48:39;;;;;;;8.57;4.17;;;;;;;4.11;87.71;102104.41;4903058;29;20143;-82
2021/04/14 07:51:11;;;;;;;13.07;6.97;;;;;;;4.28;90.66;102106.63;4899892;29;20512;-82
2021/04/14 07:53:41;;;;;;;10.50;5.90;;;;;;;4.32;89.38;102117.25;4865725;29;20123;-85
2021/04/14 07:56:09;;;;;;;7.53;3.37;;;;;;;4.45;85.20;102106.25;4899697;29;20043;-81
2021/04/14 07:58:39;;;;;;;11.77;4.23;;;;;;;4.14;86.25;102111.47;4911372;29;20040;-82
2021/04/14 08:01:12;;;;;;;12.07;4.27;;;;;;;4.04;84.64;102118.19;4897385;29;20114;-83
2021/04/14 08:03:38;;;;;;;8.53;3.17;;;;;;;4.37;87.70;102117.34;4883502;29;20132;-81
2021/04/14 08:06:23;;;;;;;18.17;16.67;;;;;;;4.25;88.06;102107.44;4879740;29;20051;-83
2021/04/14 08:08:50;;;;;;;8.05;3.33;;;;;;;4.31;84.74;102114.59;4913795;29;20572;-83
2021/04/14 08:11:29;;;;;;;11.10;3.90;;;;;;;4.23;85.48;102110.00;4887600;29;20472;-83
2021/04/14 08:14:09;;;;;;;12.00;3.30;;;;;;;4.40;86.96;102107.00;4912457;29;20035;-82
2021/04/14 08:16:40;;;;;;;9.37;3.63;;;;;;;4.60;87.34;102104.91;4913541;29;20044;-83
2021/04/14 08:19:27;;;;;;;7.90;3.00;;;;;;;4.90;86.28;102105.72;4897413;29;20040;-81
2021/04/14 08:21:59;;;;;;;12.03;4.10;;;;;;;4.48;80.80;102111.59;4914387;29;20122;-82
2021/04/14 08:24:28;;;;;;;;;;;;;;;4.47;83.57;102106.31;4881679;29;20138;-84
2021/04/14 08:26:57;;;;;;;9.33;3.23;;;;;;;4.94;83.70;102102.31;4898168;29;19953;-82
2021/04/14 08:29:24;;;;;;;6.27;2.83;;;;;;;5.43;82.08;102103.53;4894879;29;20048;-83
2021/04/14 08:31:51;;;;;;;7.00;3.80;;;;;;;5.51;79.58;102096.75;4899199;29;20138;-82
2021/04/14 08:34:32;;;;;;;7.67;3.20;;;;;;;5.58;80.72;102093.41;4893339;29;20075;-82
2021/04/14 08:37:16;;;;;;;6.70;2.80;;;;;;;5.22;78.26;102092.56;4893076;29;20092;-82
2021/04/14 08:39:49;;;;;;;10.70;3.10;;;;;;;5.04;78.04;102088.63;4897291;29;20054;-84
2021/04/14 08:42:24;;;;;;;5.50;2.88;;;;;;;5.39;77.41;102090.34;4912589;29;20118;-82
2021/04/14 08:44:51;;;;;;;;;;;;;;;5.45;78.02;102088.72;4903731;29;20048;-82
2021/04/14 08:47:25;;;;;;;6.50;2.97;;;;;;;5.80;81.25;102083.38;4900478;29;19930;-83
2021/04/14 08:49:58;;;;;;;8.57;2.67;;;;;;;6.11;75.84;102082.34;4900318;29;20043;-83
2021/04/14 08:52:36;;;;;;;5.83;2.77;;;;;;;6.14;73.11;102080.69;4912676;29;20040;-82
2021/04/14 08:55:03;;;;;;;5.80;2.83;;;;;;;5.87;71.99;102077.44;4906889;29;20035;-82
2021/04/14 08:57:29;;;;;;;5.47;2.53;;;;;;;5.78;73.16;102085.97;4909178;29;20075;-82
2021/04/14 08:59:56;;;;;;;8.10;3.30;;;;;;;5.42;75.87;102078.19;4896633;29;20075;-82
2021/04/14 09:02:23;;;;;;;4.47;2.20;;;;;;;5.48;71.72;102077.44;4890328;29;20420;-82
2021/04/14 09:04:51;;;;;;;5.47;2.50;;;;;;;5.73;74.07;102081.50;4903883;29;20047;-81
2021/04/14 09:07:26;;;;;;;6.63;2.30;;;;;;;5.83;73.62;102067.75;4889991;29;20111;-82
2021/04/14 09:09:53;;;;;;;4.47;2.20;;;;;;;5.88;69.54;102072.19;4902569;29;20044;-82
2021/04/14 09:12:43;;;;;;;3.77;2.10;;;;;;;6.48;70.40;102058.59;4903574;29;20051;-82
2021/04/14 09:15:12;;;;;;;8.93;3.10;;;;;;;6.64;68.09;102070.28;4934612;29;20048;-82
2021/04/14 09:17:41;;;;;;;5.73;2.43;;;;;;;6.88;65.19;102059.28;4884217;29;20116;-84
2021/04/14 09:20:20;;;;;;;6.83;2.33;;;;;;;7.05;66.19;102063.06;4919723;29;20040;-81
2021/04/14 09:22:58;;;;;;;9.07;2.53;;;;;;;6.68;65.84;102064.19;4927580;29;20163;-81
2021/04/14 09:25:31;;;;;;;6.03;2.60;;;;;;;6.84;67.67;102054.84;4918058;29;20048;-80
2021/04/14 09:28:02;;;;;;;8.45;2.78;;;;;;;6.48;64.99;102057.72;4901671;29;20181;-83
2021/04/14 09:30:40;;;;;;;4.43;2.10;;;;;;;6.73;67.33;102059.03;4901823;29;20051;-83
2021/04/14 09:33:08;;;;;;;7.73;2.83;;;;;;;6.47;67.75;102048.03;4915091;29;20524;-83
2021/04/14 09:35:34;;;;;;;4.77;2.70;;;;;;;6.40;63.88;102052.31;4914074;29;20058;-82
2021/04/14 09:38:25;;;;;;;4.77;2.03;;;;;;;6.55;64.20;102050.81;4917181;29;20509;-83
2021/04/14 09:41:05;;;;;;;4.37;2.10;;;;;;;6.60;64.73;102059.66;4913154;29;20087;-83
2021/04/14 09:43:34;;;;;;;8.70;2.63;;;;;;;7.00;67.07;102056.00;4901012;29;20711;-83
2021/04/14 09:46:08;;;;;;;7.07;3.20;;;;;;;6.71;59.95;102051.13;4901252;29;20520;-83
2021/04/14 09:48:42;;;;;;;4.83;2.00;;;;;;;6.31;62.27;102056.50;4899382;29;20103;-83
2021/04/14 09:51:16;;;;;;;;;;;;;;;6.69;65.27;102050.22;4901644;29;20458;-83
2021/04/14 09:53:43;;;;;;;6.33;3.00;;;;;;;6.79;64.64;102046.00;4916255;29;19945;-83
2021/04/14 09:56:13;;;;;;;6.30;1.80;;;;;;;6.96;62.05;102048.91;4900362;29;20055;-83
2021/04/14 09:59:02;;;;;;;4.17;1.90;;;;;;;7.21;56.92;102039.66;4910276;29;20048;-82
2021/04/14 10:01:32;;;;;;;3.53;1.93;;;;;;;7.34;57.26;102042.53;4897741;29;20047;-83
2021/04/14 10:04:00;;;;;;;6.30;1.90;;;;;;;7.12;54.77;102044.78;4899710;29;20043;-84
2021/04/14 10:06:27;;;;;;;3.40;1.50;;;;;;;6.75;55.05;102049.44;4898215;29;20067;-83
2021/04/14 10:09:00;;;;;;;2.70;1.43;;;;;;;6.49;53.81;102044.63;4898956;29;20047;-83
2021/04/14 10:11:30;;;;;;;3.03;1.83;;;;;;;6.60;56.02;102047.41;4900306;29;20063;-83
2021/04/14 10:14:06;;;;;;;3.83;1.70;;;;;;;6.55;55.18;102041.19;4899373;29;20051;-83
2021/04/14 10:16:33;;;;;;;2.47;1.40;;;;;;;6.59;58.08;102045.66;4916994;29;20130;-84
2021/04/14 10:19:02;;;;;;;6.80;2.10;;;;;;;6.64;60.16;102043.09;4903102;29;20044;-82
2021/04/14 10:21:29;;;;;;;6.83;2.13;;;;;;;6.34;61.03;102046.06;4900074;29;20516;-82
2021/04/14 10:24:02;;;;;;;7.23;2.00;;;;;;;6.41;64.33;102045.31;4900822;29;20044;-84
2021/04/14 10:26:31;;;;;;;;;;;;;;;6.57;66.55;102047.38;4902535;29;20078;-84
2021/04/14 10:28:59;;;;;;;3.80;1.87;;;;;;;6.48;67.35;102044.59;4895835;29;19929;-83
2021/04/14 10:31:25;;;;;;;7.20;2.20;;;;;;;6.45;66.65;102045.41;4910987;29;20055;-83
2021/04/14 10:33:52;;;;;;;5.60;1.70;;;;;;;6.48;63.53;102040.22;4903159;29;20063;-83
2021/04/14 10:36:33;;;;;;;2.57;1.43;;;;;;;6.55;58.83;102048.19;4885457;29;20102;-82
2021/04/14 10:39:18;;;;;;;2.33;1.50;;;;;;;6.69;60.60;102038.81;4902505;29;20126;-84
2021/04/14 10:41:46;;;;;;;2.77;2.03;;;;;;;7.12;59.07;102035.16;4908188;29;20051;-84
2021/04/14 10:44:21;;;;;;;2.33;1.10;;;;;;;7.71;54.46;102024.63;4903900;29;20047;-82
2021/04/14 10:46:49;;;;;;;2.00;1.37;;;;;;;7.90;47.61;102013.47;4903180;29;20051;-82
2021/04/14 10:49:25;;;;;;;4.23;1.43;;;;;;;8.56;50.09;102014.19;4886051;29;20099;-82
2021/04/14 10:51:53;;;;;;;5.77;1.80;;;;;;;9.02;48.20;102001.44;4898180;29;20051;-82
2021/04/14 10:54:25;;;;;;;3.65;1.55;;;;;;;9.29;46.84;102009.50;4897716;29;20047;-82
2021/04/14 10:57:00;;;;;;;4.60;1.60;;;;;;;8.96;41.63;102012.78;4881297;29;20048;-82
2021/04/14 10:59:27;;;;;;;5.75;2.47;;;;;;;8.56;47.86;102013.31;4897490;29;20052;-83
2021/04/14 11:01:54;;;;;;;3.47;1.50;;;;;;;7.96;51.90;102009.13;4878626;29;20147;-82
2021/04/14 11:04:36;;;;;;;4.57;2.33;;;;;;;7.75;53.88;102025.56;4908971;29;20047;-83
2021/04/14 11:07:09;;;;;;;3.53;1.50;;;;;;;7.41;50.06;102021.59;4898502;29;20076;-83
2021/04/14 11:09:39;;;;;;;2.47;1.40;;;;;;;7.42;52.15;102015.47;4899402;29;20064;-83
2021/04/14 11:12:09;;;;;;;4.27;1.47;;;;;;;7.01;53.87;102027.13;4899284;29;20051;-83
2021/04/14 11:14:37;;;;;;;4.63;1.50;;;;;;;7.15;52.10;102027.34;4906225;29;20469;-83
2021/04/14 11:17:06;;;;;;;3.87;1.87;;;;;;;7.01;51.76;102026.22;4888171;29;20044;-82
2021/04/14 11:19:33;;;;;;;3.23;1.30;;;;;;;6.93;51.27;102030.47;4905183;29;20079;-83
2021/04/14 11:22:09;;;;;;;3.53;1.10;;;;;;;6.89;50.07;102021.63;4889928;29;20051;-82
2021/04/14 11:25:05;;;;;;;2.30;1.23;;;;;;;6.76;49.72;102019.69;4921522;29;20047;-82
2021/04/14 11:27:31;;;;;;;4.23;1.30;;;;;;;7.18;52.35;102015.97;4887497;29;20493;-82
2021/04/14 11:30:16;;;;;;;2.00;1.10;;;;;;;7.39;50.49;102011.03;4918018;29;20062;-83
2021/04/14 11:32:53;;;;;;;2.30;1.27;;;;;;;7.98;55.15;102020.56;4885631;29;20461;-82
2021/04/14 11:35:31;;;;;;;1.77;1.40;;;;;;;8.07;49.28;102007.50;4885915;29;20153;-82
2021/04/14 11:37:58;;;;;;;2.97;1.43;;;;;;;7.94;46.25;102009.13;4899250;29;20048;-83
2021/04/14 11:40:39;;;;;;;1.80;1.30;;;;;;;8.11;48.26;101999.66;4882297;29;20082;-82